GFSAC EGBE-EGBE

Flight info

Callsign GFSAC
Flight time 1h 7m
Altitude 2500
Route VFR
Aircraft PA24/L-SDGRY/S

Departure

Time 2026-04-28 16:38
Airport Coventry Airport (EGBE)

Arrival

Time 2026-04-28 17:46
Airport Coventry Airport (EGBE)
Time Latitude Longitude Altitude Speed Heading
2026-04-28 16:33 52.37384 -1.47614 267 ft 0 kts 320°
2026-04-28 16:34 52.37389 -1.47621 267 ft 3 kts 315°
2026-04-28 16:35 52.37381 -1.47653 267 ft 0 kts 229°
2026-04-28 16:35 52.37374 -1.47667 266 ft 6 kts 234°
2026-04-28 16:35 52.37326 -1.47750 267 ft 13 kts 217°
2026-04-28 16:35 52.37252 -1.47874 267 ft 19 kts 228°
2026-04-28 16:36 52.37162 -1.48031 267 ft 17 kts 229°
2026-04-28 16:36 52.37071 -1.48179 267 ft 16 kts 223°
2026-04-28 16:36 52.36983 -1.48326 268 ft 21 kts 224°
2026-04-28 16:36 52.36883 -1.48507 268 ft 19 kts 227°
2026-04-28 16:37 52.36803 -1.48640 268 ft 20 kts 224°
2026-04-28 16:37 52.36707 -1.48793 268 ft 16 kts 213°
2026-04-28 16:37 52.36601 -1.48813 268 ft 16 kts 162°
2026-04-28 16:38 52.36710 -1.48448 275 ft 59 kts 44°
2026-04-28 16:38 52.36973 -1.47947 619 ft 53 kts 46°
2026-04-28 16:38 52.37228 -1.47452 897 ft 61 kts 48°
2026-04-28 16:38 52.37562 -1.46847 1038 ft 87 kts 46°
2026-04-28 16:39 52.38017 -1.46083 1226 ft 97 kts 46°
2026-04-28 16:39 52.38486 -1.45310 1484 ft 93 kts 47°
2026-04-28 16:39 52.38949 -1.44554 1713 ft 95 kts 45°
2026-04-28 16:39 52.39420 -1.43772 1934 ft 97 kts 46°
2026-04-28 16:40 52.39882 -1.42987 2171 ft 95 kts 45°
2026-04-28 16:40 52.40339 -1.42215 2400 ft 94 kts 45°
2026-04-28 16:40 52.40804 -1.41426 2524 ft 103 kts 45°
2026-04-28 16:40 52.41326 -1.40550 2530 ft 111 kts 41°
2026-04-28 16:41 52.41995 -1.39828 2539 ft 120 kts 34°
2026-04-28 16:41 52.42726 -1.39106 2468 ft 127 kts 28°
2026-04-28 16:41 52.43599 -1.38809 2468 ft 133 kts
2026-04-28 16:41 52.44508 -1.39280 2453 ft 144 kts 341°
2026-04-28 16:42 52.45302 -1.40377 2342 ft 156 kts 319°
2026-04-28 16:42 52.45860 -1.41937 2220 ft 162 kts 301°
2026-04-28 16:42 52.46128 -1.43779 2048 ft 170 kts 284°
2026-04-28 16:42 52.46161 -1.45667 2059 ft 162 kts 276°
2026-04-28 16:43 52.46131 -1.47512 1917 ft 161 kts 274°
2026-04-28 16:43 52.46088 -1.49334 1777 ft 159 kts 274°
2026-04-28 16:43 52.46012 -1.51076 1881 ft 150 kts 271°
2026-04-28 16:43 52.45873 -1.52736 1985 ft 146 kts 266°
2026-04-28 16:44 52.45703 -1.54378 2063 ft 147 kts 266°
2026-04-28 16:44 52.45534 -1.56037 2101 ft 149 kts 266°
2026-04-28 16:44 52.45426 -1.57167 2058 ft 155 kts 267°
2026-04-28 16:44 52.45250 -1.58926 2058 ft 155 kts 265°
2026-04-28 16:45 52.45068 -1.60686 2066 ft 158 kts 266°
2026-04-28 16:45 52.44918 -1.62475 2036 ft 159 kts 269°
2026-04-28 16:45 52.44825 -1.64291 1958 ft 159 kts 272°
2026-04-28 16:45 52.44748 -1.66070 1986 ft 155 kts 275°
2026-04-28 16:46 52.44766 -1.67824 1969 ft 152 kts 278°
2026-04-28 16:46 52.44760 -1.69572 1934 ft 156 kts 275°
2026-04-28 16:46 52.44728 -1.71365 1887 ft 159 kts 272°
2026-04-28 16:46 52.44552 -1.73155 1855 ft 164 kts 258°
2026-04-28 16:47 52.44075 -1.74869 1783 ft 167 kts 236°
2026-04-28 16:47 52.43234 -1.76122 1576 ft 162 kts 206°
2026-04-28 16:47 52.42197 -1.76347 1458 ft 145 kts 166°
2026-04-28 16:47 52.41282 -1.75830 1323 ft 136 kts 148°
2026-04-28 16:48 52.40601 -1.74964 1317 ft 116 kts 111°
2026-04-28 16:48 52.40429 -1.73821 1335 ft 100 kts 74°
2026-04-28 16:48 52.40701 -1.72749 1153 ft 107 kts 54°
2026-04-28 16:48 52.41210 -1.71847 1080 ft 105 kts 33°
2026-04-28 16:49 52.41935 -1.71469 921 ft 115 kts
2026-04-28 16:49 52.42678 -1.71923 837 ft 119 kts 340°
2026-04-28 16:49 52.43403 -1.72621 647 ft 121 kts 332°
2026-04-28 16:49 52.44066 -1.73358 506 ft 106 kts 335°
2026-04-28 16:50 52.44650 -1.73995 374 ft 98 kts 336°
2026-04-28 16:50 52.45141 -1.74544 330 ft 70 kts 341°
2026-04-28 16:50 52.45506 -1.74935 357 ft 66 kts 335°
2026-04-28 16:50 52.45903 -1.75378 586 ft 70 kts 343°
2026-04-28 16:51 52.46326 -1.75871 813 ft 80 kts 341°
2026-04-28 16:51 52.46793 -1.76401 1062 ft 81 kts 338°
2026-04-28 16:51 52.47046 -1.77300 1303 ft 112 kts 269°
2026-04-28 16:51 52.46909 -1.78602 1568 ft 119 kts 270°
2026-04-28 16:52 52.46690 -1.79956 1836 ft 126 kts 253°
2026-04-28 16:52 52.46367 -1.81305 2170 ft 124 kts 253°
2026-04-28 16:52 52.46055 -1.82663 2316 ft 140 kts 253°
2026-04-28 16:52 52.45709 -1.84266 2320 ft 156 kts 255°
2026-04-28 16:53 52.45315 -1.85982 2187 ft 169 kts 251°
2026-04-28 16:53 52.44899 -1.87782 2160 ft 169 kts 254°
2026-04-28 16:53 52.44491 -1.89567 2197 ft 164 kts 252°
2026-04-28 16:53 52.44084 -1.91375 2036 ft 173 kts 254°
2026-04-28 16:54 52.43673 -1.93202 2071 ft 169 kts 250°
2026-04-28 16:54 52.43227 -1.94942 2079 ft 166 kts 252°
2026-04-28 16:54 52.42769 -1.96697 2043 ft 168 kts 250°
2026-04-28 16:54 52.42364 -1.98487 2027 ft 167 kts 260°
2026-04-28 16:55 52.42319 -2.00361 1971 ft 164 kts 284°
2026-04-28 16:55 52.42612 -2.02098 1991 ft 156 kts 296°
2026-04-28 16:55 52.42962 -2.03781 1986 ft 157 kts 295°
2026-04-28 16:55 52.43281 -2.05500 1956 ft 158 kts 294°
2026-04-28 16:56 52.43598 -2.07231 1910 ft 159 kts 294°
2026-04-28 16:56 52.43921 -2.08969 1879 ft 160 kts 294°
2026-04-28 16:56 52.44297 -2.10667 1848 ft 157 kts 303°
2026-04-28 16:56 52.44725 -2.12336 1779 ft 159 kts 302°
2026-04-28 16:57 52.45140 -2.13997 1773 ft 156 kts 301°
2026-04-28 16:57 52.45586 -2.15588 1777 ft 151 kts 306°
2026-04-28 16:57 52.46074 -2.17139 1728 ft 156 kts 307°
2026-04-28 16:57 52.46591 -2.18676 1757 ft 153 kts 308°
2026-04-28 16:58 52.47148 -2.20145 1729 ft 153 kts 311°
2026-04-28 16:58 52.47711 -2.21689 1510 ft 156 kts 310°
2026-04-28 16:58 52.48283 -2.23115 1212 ft 143 kts 311°
2026-04-28 16:58 52.48980 -2.24012 997 ft 122 kts 347°
2026-04-28 16:59 52.49720 -2.24445 781 ft 104 kts 347°
2026-04-28 16:59 52.50339 -2.24953 592 ft 97 kts 348°
2026-04-28 16:59 52.50932 -2.25384 431 ft 87 kts 348°
2026-04-28 16:59 52.51466 -2.25759 297 ft 81 kts 344°
2026-04-28 17:00 52.51929 -2.26095 360 ft 67 kts 352°
2026-04-28 17:00 52.52354 -2.26377 649 ft 69 kts 354°
2026-04-28 17:00 52.52818 -2.26615 922 ft 69 kts 13°
2026-04-28 17:00 52.53147 -2.26185 1192 ft 65 kts 65°
2026-04-28 17:01 52.53141 -2.25421 1525 ft 65 kts 89°
2026-04-28 17:01 52.53068 -2.24729 1870 ft 59 kts 86°
2026-04-28 17:01 52.53003 -2.24025 2075 ft 75 kts 87°
2026-04-28 17:01 52.52944 -2.23003 2089 ft 102 kts 88°
2026-04-28 17:02 52.52904 -2.21752 2088 ft 115 kts 87°
2026-04-28 17:02 52.52844 -2.20856 2142 ft 118 kts 94°
2026-04-28 17:02 52.52363 -2.19198 2178 ft 131 kts 115°
2026-04-28 17:02 52.51864 -2.17934 2174 ft 134 kts 115°
2026-04-28 17:03 52.50785 -2.15312 2057 ft 140 kts 121°
2026-04-28 17:03 52.50151 -2.14109 2085 ft 139 kts 123°
2026-04-28 17:03 52.49480 -2.12949 2041 ft 140 kts 125°
2026-04-28 17:04 52.47868 -2.11061 2028 ft 147 kts 142°
2026-04-28 17:04 52.46970 -2.10288 2098 ft 145 kts 144°
2026-04-28 17:05 52.45086 -2.08884 2073 ft 151 kts 147°
2026-04-28 17:05 52.44176 -2.08104 2093 ft 145 kts 137°
2026-04-28 17:05 52.43411 -2.07072 2068 ft 139 kts 119°
2026-04-28 17:06 52.42682 -2.04282 2058 ft 130 kts 101°
2026-04-28 17:06 52.42401 -2.02861 2054 ft 132 kts 100°
2026-04-28 17:06 52.41975 -1.99981 2133 ft 123 kts 89°
2026-04-28 17:07 52.41913 -1.98570 2144 ft 125 kts 89°
2026-04-28 17:07 52.41818 -1.97136 2160 ft 127 kts 91°
2026-04-28 17:07 52.41689 -1.95695 2135 ft 131 kts 90°
2026-04-28 17:07 52.41576 -1.94216 2109 ft 130 kts 89°
2026-04-28 17:08 52.41491 -1.92732 2096 ft 128 kts 87°
2026-04-28 17:08 52.41417 -1.91293 2074 ft 129 kts 89°
2026-04-28 17:08 52.41346 -1.89843 2074 ft 127 kts 85°
2026-04-28 17:08 52.41287 -1.88404 2110 ft 127 kts 88°
2026-04-28 17:09 52.41207 -1.86976 2078 ft 130 kts 87°
2026-04-28 17:09 52.41129 -1.85441 1976 ft 135 kts 88°
2026-04-28 17:09 52.41038 -1.83926 1952 ft 134 kts 88°
2026-04-28 17:09 52.40936 -1.82491 1848 ft 126 kts 89°
2026-04-28 17:10 52.40820 -1.81040 1663 ft 126 kts 91°
2026-04-28 17:10 52.40713 -1.79697 1615 ft 117 kts 88°
2026-04-28 17:10 52.40664 -1.78366 1480 ft 116 kts 85°
2026-04-28 17:10 52.40593 -1.77068 1435 ft 114 kts 88°
2026-04-28 17:11 52.40502 -1.75779 1333 ft 111 kts 89°
2026-04-28 17:11 52.40538 -1.74567 1342 ft 98 kts 70°
2026-04-28 17:11 52.40857 -1.73563 1236 ft 103 kts 55°
2026-04-28 17:11 52.41229 -1.72559 1218 ft 98 kts 54°
2026-04-28 17:12 52.41635 -1.71818 1139 ft 82 kts 34°
2026-04-28 17:12 52.42210 -1.71615 955 ft 90 kts
2026-04-28 17:12 52.42813 -1.71979 829 ft 93 kts 337°
2026-04-28 17:12 52.43362 -1.72588 695 ft 94 kts 337°
2026-04-28 17:13 52.43911 -1.73208 526 ft 92 kts 340°
2026-04-28 17:13 52.44426 -1.73746 384 ft 89 kts 339°
2026-04-28 17:13 52.44883 -1.74271 329 ft 68 kts 341°
2026-04-28 17:13 52.45284 -1.74710 601 ft 69 kts 340°
2026-04-28 17:14 52.45699 -1.75139 888 ft 69 kts 344°
2026-04-28 17:14 52.46078 -1.75584 1223 ft 64 kts 348°
2026-04-28 17:14 52.46464 -1.75981 1459 ft 67 kts 343°
2026-04-28 17:14 52.46863 -1.76408 1678 ft 72 kts 346°
2026-04-28 17:15 52.47244 -1.77114 1803 ft 102 kts 314°
2026-04-28 17:15 52.47338 -1.78508 1765 ft 146 kts 257°
2026-04-28 17:15 52.46682 -1.79806 1701 ft 155 kts 199°
2026-04-28 17:15 52.45676 -1.79802 1658 ft 144 kts 150°
2026-04-28 17:16 52.44802 -1.79116 1690 ft 139 kts 144°
2026-04-28 17:16 52.43932 -1.78402 1658 ft 142 kts 144°
2026-04-28 17:16 52.43061 -1.77649 1559 ft 139 kts 143°
2026-04-28 17:16 52.42218 -1.76915 1503 ft 136 kts 142°
2026-04-28 17:17 52.41414 -1.76148 1409 ft 133 kts 139°
2026-04-28 17:17 52.40802 -1.75189 1257 ft 108 kts 111°
2026-04-28 17:17 52.40750 -1.74106 1173 ft 89 kts 62°
2026-04-28 17:17 52.41110 -1.73307 1195 ft 87 kts 42°
2026-04-28 17:18 52.41581 -1.72663 1117 ft 91 kts 38°
2026-04-28 17:18 52.42139 -1.72121 992 ft 89 kts 25°
2026-04-28 17:18 52.42754 -1.72070 842 ft 90 kts 356°
2026-04-28 17:18 52.43306 -1.72523 671 ft 90 kts 331°
2026-04-28 17:19 52.43790 -1.73053 571 ft 79 kts 339°
2026-04-28 17:19 52.44251 -1.73549 437 ft 85 kts 335°
2026-04-28 17:19 52.44724 -1.74076 330 ft 74 kts 337°
2026-04-28 17:19 52.45068 -1.74457 326 ft 48 kts 329°
2026-04-28 17:20 52.45349 -1.74759 319 ft 58 kts 328°
2026-04-28 17:20 52.45600 -1.75045 320 ft 73 kts 334°
2026-04-28 17:20 52.46137 -1.75633 587 ft 72 kts 346°
2026-04-28 17:20 52.46570 -1.76088 866 ft 80 kts 340°
2026-04-28 17:21 52.47051 -1.76660 1167 ft 94 kts 329°
2026-04-28 17:21 52.47282 -1.77770 1415 ft 123 kts 271°
2026-04-28 17:21 52.46959 -1.79120 1600 ft 137 kts 235°
2026-04-28 17:22 52.45245 -1.80048 1555 ft 125 kts 150°
2026-04-28 17:22 52.44501 -1.79430 1633 ft 116 kts 141°
2026-04-28 17:22 52.43775 -1.78844 1647 ft 118 kts 142°
2026-04-28 17:23 52.42396 -1.77449 1680 ft 114 kts 133°
2026-04-28 17:23 52.41750 -1.76642 1657 ft 116 kts 129°
2026-04-28 17:23 52.41065 -1.75841 1455 ft 130 kts 134°
2026-04-28 17:23 52.40377 -1.74920 1343 ft 119 kts 123°
2026-04-28 17:24 52.40084 -1.73824 1332 ft 98 kts 84°
2026-04-28 17:24 52.40278 -1.72782 1210 ft 95 kts 52°
2026-04-28 17:24 52.40784 -1.72039 1086 ft 99 kts 36°
2026-04-28 17:24 52.41360 -1.71457 1100 ft 96 kts 28°
2026-04-28 17:25 52.42018 -1.71210 1041 ft 102 kts 360°
2026-04-28 17:25 52.43274 -1.72488 657 ft 88 kts 336°
2026-04-28 17:25 52.43738 -1.73029 539 ft 74 kts 348°
2026-04-28 17:26 52.44156 -1.73459 463 ft 71 kts 347°
2026-04-28 17:26 52.44575 -1.73912 344 ft 72 kts 345°
2026-04-28 17:26 52.44952 -1.74329 323 ft 55 kts 328°
2026-04-28 17:26 52.45213 -1.74604 324 ft 49 kts 336°
2026-04-28 17:27 52.45572 -1.75023 416 ft 71 kts 341°
2026-04-28 17:27 52.46027 -1.75430 647 ft 77 kts 355°
2026-04-28 17:27 52.46531 -1.75350 1015 ft 69 kts 27°
2026-04-28 17:27 52.46881 -1.74755 1280 ft 82 kts 65°
2026-04-28 17:28 52.46789 -1.73816 1634 ft 86 kts 105°
2026-04-28 17:28 52.46731 -1.72054 2205 ft 80 kts 67°
2026-04-28 17:28 52.46900 -1.71091 2323 ft 101 kts 68°
2026-04-28 17:29 52.47140 -1.69829 2210 ft 127 kts 68°
2026-04-28 17:29 52.47437 -1.68448 2242 ft 129 kts 67°
2026-04-28 17:29 52.47757 -1.67073 2129 ft 124 kts 63°
2026-04-28 17:30 52.48647 -1.64742 1843 ft 121 kts 62°
2026-04-28 17:30 52.49241 -1.62363 1920 ft 111 kts 63°
2026-04-28 17:30 52.49532 -1.61183 1932 ft 111 kts 65°
2026-04-28 17:31 52.49794 -1.60041 2000 ft 106 kts 64°
2026-04-28 17:31 52.50337 -1.57777 1904 ft 107 kts 66°
2026-04-28 17:32 52.50779 -1.55545 1991 ft 101 kts 65°
2026-04-28 17:32 52.51011 -1.54470 2058 ft 99 kts 66°
2026-04-28 17:32 52.51242 -1.53379 2043 ft 106 kts 68°
2026-04-28 17:32 52.51441 -1.52200 2018 ft 106 kts 72°
2026-04-28 17:33 52.51620 -1.51023 1990 ft 107 kts 69°
2026-04-28 17:33 52.51754 -1.50208 1914 ft 112 kts 71°
2026-04-28 17:33 52.51931 -1.48988 1945 ft 107 kts 70°
2026-04-28 17:33 52.51994 -1.48185 1915 ft 112 kts 84°
2026-04-28 17:34 52.51504 -1.46582 1846 ft 130 kts 122°
2026-04-28 17:34 52.50672 -1.45843 1825 ft 144 kts 156°
2026-04-28 17:34 52.49620 -1.45958 1689 ft 161 kts 193°
2026-04-28 17:34 52.48628 -1.46753 1726 ft 159 kts 208°
2026-04-28 17:35 52.47718 -1.47805 1697 ft 161 kts 216°
2026-04-28 17:35 52.46772 -1.48795 1605 ft 159 kts 200°
2026-04-28 17:35 52.45727 -1.49240 1575 ft 152 kts 182°
2026-04-28 17:35 52.44700 -1.49440 1562 ft 147 kts 177°
2026-04-28 17:36 52.43666 -1.49502 1477 ft 149 kts 172°
2026-04-28 17:36 52.42660 -1.49469 1543 ft 141 kts 167°
2026-04-28 17:36 52.41695 -1.49314 1582 ft 138 kts 165°
2026-04-28 17:36 52.40735 -1.49124 1573 ft 141 kts 168°
2026-04-28 17:37 52.39722 -1.49218 1511 ft 149 kts 181°
2026-04-28 17:37 52.38710 -1.49308 1479 ft 144 kts 172°
2026-04-28 17:37 52.37731 -1.49152 1427 ft 140 kts 161°
2026-04-28 17:37 52.36844 -1.48682 1431 ft 131 kts 146°
2026-04-28 17:38 52.36049 -1.48049 1528 ft 125 kts 141°
2026-04-28 17:38 52.35293 -1.47327 1612 ft 124 kts 138°
2026-04-28 17:38 52.34570 -1.46590 1766 ft 122 kts 136°
2026-04-28 17:38 52.33851 -1.45866 1895 ft 121 kts 136°
2026-04-28 17:39 52.33140 -1.45136 2014 ft 121 kts 136°
2026-04-28 17:39 52.32414 -1.44390 2044 ft 125 kts 134°
2026-04-28 17:39 52.30953 -1.42713 2056 ft 129 kts 133°
2026-04-28 17:40 52.30248 -1.41807 2059 ft 129 kts 130°
2026-04-28 17:40 52.29548 -1.40875 2058 ft 131 kts 130°
2026-04-28 17:40 52.28838 -1.39944 2058 ft 131 kts 129°
2026-04-28 17:40 52.28087 -1.39098 2018 ft 139 kts 144°
2026-04-28 17:41 52.27156 -1.38605 1920 ft 143 kts 159°
2026-04-28 17:41 52.26158 -1.38342 1726 ft 146 kts 163°
2026-04-28 17:41 52.25148 -1.38333 1680 ft 144 kts 187°
2026-04-28 17:41 52.24398 -1.39320 1691 ft 141 kts 250°
2026-04-28 17:42 52.24498 -1.40680 1662 ft 113 kts 323°
2026-04-28 17:42 52.25128 -1.41019 1609 ft 95 kts 19°
2026-04-28 17:42 52.25639 -1.40443 1577 ft 90 kts 47°
2026-04-28 17:42 52.26094 -1.39755 1572 ft 88 kts 41°
2026-04-28 17:43 52.26561 -1.39142 1622 ft 79 kts 39°
2026-04-28 17:43 52.27045 -1.38648 1549 ft 87 kts 30°
2026-04-28 17:43 52.27595 -1.38350 1724 ft 78 kts 16°
2026-04-28 17:43 52.28157 -1.38496 1766 ft 93 kts 347°
2026-04-28 17:44 52.28757 -1.39137 1652 ft 110 kts 339°
2026-04-28 17:44 52.29465 -1.39692 1525 ft 115 kts 348°
2026-04-28 17:44 52.30218 -1.40184 1394 ft 118 kts 348°
2026-04-28 17:44 52.30988 -1.40688 1238 ft 119 kts 350°
2026-04-28 17:45 52.31763 -1.41053 1090 ft 112 kts
2026-04-28 17:45 52.32514 -1.40898 1025 ft 104 kts 20°
2026-04-28 17:45 52.33080 -1.40458 1216 ft 79 kts 40°
2026-04-28 17:45 52.33371 -1.39819 1411 ft 63 kts 63°
2026-04-28 17:46 52.33433 -1.39184 1603 ft 52 kts 74°
2026-04-28 17:46 52.33416 -1.38667 1734 ft 45 kts 72°
2026-04-28 17:46 52.33399 -1.38148 1962 ft 47 kts 73°
2026-04-28 17:46 52.33403 -1.37506 2064 ft 73 kts 73°
2026-04-28 17:47 52.33467 -1.36507 2101 ft 99 kts 76°
2026-04-28 17:47 52.33483 -1.35285 2033 ft 118 kts 84°
2026-04-28 17:47 52.33381 -1.33932 2014 ft 126 kts 96°
2026-04-28 17:47 52.33206 -1.33015 2019 ft 129 kts 99°
2026-04-28 17:48 52.32944 -1.31105 2026 ft 126 kts 84°
2026-04-28 17:48 52.33099 -1.29735 2017 ft 119 kts 64°
2026-04-28 17:48 52.33540 -1.28647 2009 ft 118 kts 45°
2026-04-28 17:48 52.34235 -1.27825 1877 ft 124 kts 34°
2026-04-28 17:49 52.35015 -1.27137 1670 ft 130 kts 27°
2026-04-28 17:49 52.35860 -1.26631 1659 ft 122 kts 19°
2026-04-28 17:49 52.36680 -1.26743 1746 ft 123 kts 345°
2026-04-28 17:49 52.37347 -1.27432 1754 ft 103 kts 351°
2026-04-28 17:50 52.37918 -1.27210 1772 ft 79 kts 50°
2026-04-28 17:50 52.37993 -1.26303 1706 ft 93 kts 95°
2026-04-28 17:50 52.37534 -1.25419 1651 ft 111 kts 131°
2026-04-28 17:50 52.36848 -1.24740 1517 ft 119 kts 136°
2026-04-28 17:51 52.36300 -1.23887 1475 ft 101 kts 105°
2026-04-28 17:51 52.36076 -1.22861 1404 ft 97 kts 94°
2026-04-28 17:51 52.36051 -1.21956 1595 ft 67 kts 46°
2026-04-28 17:51 52.36587 -1.22214 1719 ft 118 kts 324°
2026-04-28 17:52 52.36823 -1.23632 2023 ft 133 kts 278°
2026-04-28 17:52 52.36699 -1.25221 1966 ft 143 kts 266°
2026-04-28 17:52 52.36316 -1.28319 2077 ft 141 kts 267°
2026-04-28 17:53 52.36155 -1.29922 2053 ft 144 kts 267°
2026-04-28 17:53 52.35996 -1.31538 2050 ft 143 kts 268°
2026-04-28 17:53 52.35815 -1.33137 2052 ft 144 kts 267°
2026-04-28 17:53 52.35650 -1.34802 1927 ft 152 kts 268°
2026-04-28 17:54 52.35480 -1.36518 1810 ft 153 kts 267°
2026-04-28 17:54 52.35308 -1.38254 1683 ft 155 kts 267°
2026-04-28 17:54 52.35143 -1.39958 1550 ft 148 kts 268°
2026-04-28 17:54 52.34952 -1.41554 1546 ft 139 kts 267°
2026-04-28 17:55 52.34807 -1.43125 1438 ft 139 kts 272°
2026-04-28 17:55 52.34723 -1.44682 1340 ft 138 kts 262°
2026-04-28 17:55 52.34447 -1.46155 1266 ft 135 kts 251°
2026-04-28 17:55 52.34112 -1.47598 1204 ft 136 kts 252°
2026-04-28 17:56 52.33781 -1.49071 1102 ft 137 kts 256°
2026-04-28 17:56 52.33734 -1.50508 955 ft 121 kts 296°
2026-04-28 17:56 52.34184 -1.51452 870 ft 94 kts 350°
2026-04-28 17:56 52.34778 -1.51513 788 ft 84 kts 26°
2026-04-28 17:57 52.35240 -1.51039 745 ft 72 kts 37°
2026-04-28 17:57 52.35547 -1.50529 617 ft 60 kts 45°
2026-04-28 17:57 52.35816 -1.50042 496 ft 58 kts 50°
2026-04-28 17:57 52.36098 -1.49545 457 ft 67 kts 50°
2026-04-28 17:58 52.36426 -1.48955 327 ft 73 kts 46°
2026-04-28 17:58 52.36745 -1.48391 279 ft 53 kts 46°
2026-04-28 17:58 52.36861 -1.48183 276 ft 0 kts 349°
2026-04-28 17:58 52.36891 -1.48215 276 ft 16 kts 341°
2026-04-28 17:59 52.36985 -1.48247 270 ft 5 kts 351°
2026-04-28 17:59 52.36986 -1.48248 269 ft 0 kts 351°
2026-04-28 17:59 52.36990 -1.48249 270 ft 5 kts 350°
2026-04-28 18:00 52.37082 -1.48165 267 ft 24 kts 41°
2026-04-28 18:00 52.37217 -1.47934 267 ft 31 kts 46°
2026-04-28 18:00 52.37358 -1.47706 267 ft 17 kts 49°
2026-04-28 18:00 52.37368 -1.47683 267 ft 0 kts 53°
2026-04-28 18:01 52.37379 -1.47615 267 ft 5 kts 165°
2026-04-28 18:01 52.37373 -1.47625 267 ft 1 kts 285°
2026-04-28 18:01 52.37378 -1.47631 267 ft 0 kts 323°